This is the latest recevied weather packets stored in our database for station/object KC3UTO. If no packets are shown the sender has not sent any weather packets the latest 1 day(s).
| Time | Temp. | Humidity | Pressure | Rain* | Wind** | Luminosity | Snow |
|---|---|---|---|---|---|---|---|
| 1778064388 | 18.89° C | 69% | 1008 hPa | 0 mm | 1.34 m/s, 298° | 49 W/m² | - |
| 1778064086 | 18.89° C | 69% | 1008.2 hPa | 0 mm | 0 m/s | 51 W/m² | - |
| 1778063783 | 18.89° C | 69% | 1008 hPa | 0 mm | 2.24 m/s, 194° | 25 W/m² | - |
| 1778063480 | 18.33° C | 69% | 1007.8 hPa | 0 mm | 0.45 m/s, 66° | 20 W/m² | - |
| 1778063178 | 18.33° C | 70% | 1007.8 hPa | 0 mm | 0.89 m/s, 53° | 15 W/m² | - |
| 1778062875 | 18.89° C | 69% | 1007.7 hPa | 0 mm | 0.45 m/s, 55° | 14 W/m² | - |
| 1778062572 | 18.33° C | 70% | 1007.8 hPa | 0 mm | 0.89 m/s, 127° | 14 W/m² | - |
| 1778062268 | 18.89° C | 69% | 1007.7 hPa | 0 mm | 0.89 m/s, 75° | 10 W/m² | - |
| 1778061967 | 18.89° C | 69% | 1007.7 hPa | 0 mm | 1.79 m/s, 219° | 7 W/m² | - |
| 1778061664 | 18.89° C | 69% | 1007.7 hPa | 0 mm | 0.45 m/s, 3° | 4 W/m² | - |
| 1778061363 | 18.89° C | 69% | 1007.7 hPa | 0 mm | 0.89 m/s, 106° | 2 W/m² | - |
| 1778061059 | 18.89° C | 69% | 1007.9 hPa | 0 mm | 0.89 m/s, 31° | 1 W/m² | - |
| 1778060757 | 18.89° C | 70% | 1007.9 hPa | 0 mm | 2.24 m/s, 251° | 0 W/m² | - |
| 1778060455 | 18.89° C | 69% | 1007.9 hPa | 0 mm | 0.89 m/s, 246° | 0 W/m² | - |
| 1778060153 | 18.89° C | 69% | 1007.8 hPa | 0 mm | 0.89 m/s, 277° | 0 W/m² | - |
| 1778059850 | 18.89° C | 69% | 1007.8 hPa | 0 mm | 0.45 m/s, 25° | 0 W/m² | - |
| 1778059548 | 18.89° C | 69% | 1007.9 hPa | 0 mm | 1.79 m/s, 233° | 0 W/m² | - |
| 1778059244 | 18.89° C | 69% | 1007.8 hPa | 0 mm | 0.89 m/s, 56° | 0 W/m² | - |
| 1778058943 | 18.89° C | 69% | 1008 hPa | 0 mm | 0 m/s | 0 W/m² | - |
| 1778058639 | 18.89° C | 68% | 1007.9 hPa | 0 mm | 0.89 m/s, 243° | 0 W/m² | - |
| 1778058337 | 18.89° C | 68% | 1008.2 hPa | 0 mm | 0.89 m/s, 22° | 0 W/m² | - |
| 1778058033 | 18.89° C | 67% | 1007.9 hPa | 0 mm | 0.45 m/s, 43° | 0 W/m² | - |
| 1778057730 | 18.89° C | 67% | 1007.9 hPa | 0 mm | 0.89 m/s, 89° | 0 W/m² | - |
| 1778057427 | 18.89° C | 67% | 1008.1 hPa | 0 mm | 1.34 m/s, 224° | 0 W/m² | - |
| 1778057124 | 18.89° C | 67% | 1008.1 hPa | 0 mm | 0.45 m/s, 56° | 0 W/m² | - |
* Rain latest hour (hover to see other rain measurements)
** Current wind speed in m/s (hover to see current wind gust speed)